sensor_id;sensor_type;location;lat;lon;timestamp;P1;durP1;ratioP1;P2;durP2;ratioP2
15482;SDS011;7843;50.330;7.312;2022-08-18T00:01:44;12.30;;;11.00;;
15482;SDS011;7843;50.330;7.312;2022-08-18T00:04:13;11.90;;;10.25;;
15482;SDS011;7843;50.330;7.312;2022-08-18T00:06:40;12.43;;;10.43;;
15482;SDS011;7843;50.330;7.312;2022-08-18T00:09:08;11.07;;;9.98;;
15482;SDS011;7843;50.330;7.312;2022-08-18T00:11:37;11.55;;;10.45;;
15482;SDS011;7843;50.330;7.312;2022-08-18T00:14:07;11.73;;;10.48;;
15482;SDS011;7843;50.330;7.312;2022-08-18T00:16:39;11.23;;;9.93;;
15482;SDS011;7843;50.330;7.312;2022-08-18T00:19:06;11.35;;;9.95;;
15482;SDS011;7843;50.330;7.312;2022-08-18T00:21:34;10.48;;;9.57;;
15482;SDS011;7843;50.330;7.312;2022-08-18T00:24:01;11.38;;;10.32;;
15482;SDS011;7843;50.330;7.312;2022-08-18T00:26:28;11.40;;;10.25;;
15482;SDS011;7843;50.330;7.312;2022-08-18T00:28:57;10.70;;;9.60;;
15482;SDS011;7843;50.330;7.312;2022-08-18T00:31:24;11.57;;;9.63;;
15482;SDS011;7843;50.330;7.312;2022-08-18T00:33:51;11.77;;;10.25;;
15482;SDS011;7843;50.330;7.312;2022-08-18T00:36:17;11.27;;;10.05;;
15482;SDS011;7843;50.330;7.312;2022-08-18T00:38:44;10.65;;;9.65;;
15482;SDS011;7843;50.330;7.312;2022-08-18T00:41:11;12.02;;;10.82;;
15482;SDS011;7843;50.330;7.312;2022-08-18T00:43:41;11.10;;;9.95;;
15482;SDS011;7843;50.330;7.312;2022-08-18T00:46:24;11.85;;;10.70;;
15482;SDS011;7843;50.330;7.312;2022-08-18T00:48:55;11.63;;;10.43;;
15482;SDS011;7843;50.330;7.312;2022-08-18T00:51:31;11.07;;;9.63;;
15482;SDS011;7843;50.330;7.312;2022-08-18T00:54:10;13.07;;;10.95;;
15482;SDS011;7843;50.330;7.312;2022-08-18T00:56:45;12.77;;;11.47;;
15482;SDS011;7843;50.330;7.312;2022-08-18T00:59:28;13.13;;;11.75;;
15482;SDS011;7843;50.330;7.312;2022-08-18T01:01:58;12.77;;;11.57;;
15482;SDS011;7843;50.330;7.312;2022-08-18T01:07:01;12.95;;;11.75;;
15482;SDS011;7843;50.330;7.312;2022-08-18T01:09:33;12.43;;;11.23;;
15482;SDS011;7843;50.330;7.312;2022-08-18T01:12:00;12.00;;;10.80;;
15482;SDS011;7843;50.330;7.312;2022-08-18T01:14:27;12.10;;;11.00;;
15482;SDS011;7843;50.330;7.312;2022-08-18T01:16:53;12.82;;;11.52;;
15482;SDS011;7843;50.330;7.312;2022-08-18T01:19:40;13.98;;;11.77;;
15482;SDS011;7843;50.330;7.312;2022-08-18T01:22:28;13.07;;;11.50;;
15482;SDS011;7843;50.330;7.312;2022-08-18T01:24:58;13.68;;;12.32;;
15482;SDS011;7843;50.330;7.312;2022-08-18T01:27:45;14.20;;;12.80;;
15482;SDS011;7843;50.330;7.312;2022-08-18T01:30:13;14.90;;;12.55;;
15482;SDS011;7843;50.330;7.312;2022-08-18T01:32:43;15.50;;;13.90;;
15482;SDS011;7843;50.330;7.312;2022-08-18T01:35:13;14.77;;;13.27;;
15482;SDS011;7843;50.330;7.312;2022-08-18T01:37:42;15.25;;;13.40;;
15482;SDS011;7843;50.330;7.312;2022-08-18T01:40:10;14.45;;;12.88;;
15482;SDS011;7843;50.330;7.312;2022-08-18T01:42:38;14.50;;;13.10;;
15482;SDS011;7843;50.330;7.312;2022-08-18T01:45:08;13.88;;;12.45;;
15482;SDS011;7843;50.330;7.312;2022-08-18T01:47:36;15.63;;;13.98;;
15482;SDS011;7843;50.330;7.312;2022-08-18T01:50:06;15.48;;;13.90;;
15482;SDS011;7843;50.330;7.312;2022-08-18T01:52:33;16.50;;;14.77;;
15482;SDS011;7843;50.330;7.312;2022-08-18T01:55:01;14.77;;;13.27;;
15482;SDS011;7843;50.330;7.312;2022-08-18T01:57:28;14.43;;;12.93;;
15482;SDS011;7843;50.330;7.312;2022-08-18T01:59:55;14.20;;;12.70;;
15482;SDS011;7843;50.330;7.312;2022-08-18T02:02:27;13.95;;;12.40;;
15482;SDS011;7843;50.330;7.312;2022-08-18T02:04:59;13.95;;;12.13;;
15482;SDS011;7843;50.330;7.312;2022-08-18T02:07:30;12.82;;;11.63;;
15482;SDS011;7843;50.330;7.312;2022-08-18T02:09:57;13.25;;;12.00;;
15482;SDS011;7843;50.330;7.312;2022-08-18T02:12:23;14.32;;;12.85;;
15482;SDS011;7843;50.330;7.312;2022-08-18T02:14:50;12.57;;;11.20;;
15482;SDS011;7843;50.330;7.312;2022-08-18T02:17:18;11.55;;;10.35;;
15482;SDS011;7843;50.330;7.312;2022-08-18T02:19:45;11.23;;;10.13;;
15482;SDS011;7843;50.330;7.312;2022-08-18T02:22:14;10.85;;;9.75;;
15482;SDS011;7843;50.330;7.312;2022-08-18T02:24:44;11.20;;;10.00;;
15482;SDS011;7843;50.330;7.312;2022-08-18T02:27:12;10.57;;;9.57;;
15482;SDS011;7843;50.330;7.312;2022-08-18T02:29:40;11.80;;;10.60;;
15482;SDS011;7843;50.330;7.312;2022-08-18T02:32:07;14.07;;;11.65;;
15482;SDS011;7843;50.330;7.312;2022-08-18T02:34:34;14.95;;;13.35;;
15482;SDS011;7843;50.330;7.312;2022-08-18T02:37:01;15.68;;;13.13;;
15482;SDS011;7843;50.330;7.312;2022-08-18T02:39:28;13.32;;;12.02;;
15482;SDS011;7843;50.330;7.312;2022-08-18T02:41:55;13.27;;;11.98;;
15482;SDS011;7843;50.330;7.312;2022-08-18T02:44:22;12.57;;;11.38;;
15482;SDS011;7843;50.330;7.312;2022-08-18T02:46:52;13.50;;;10.80;;
15482;SDS011;7843;50.330;7.312;2022-08-18T02:49:19;12.40;;;11.10;;
15482;SDS011;7843;50.330;7.312;2022-08-18T02:51:46;13.13;;;11.70;;
15482;SDS011;7843;50.330;7.312;2022-08-18T02:54:13;14.55;;;13.07;;
15482;SDS011;7843;50.330;7.312;2022-08-18T02:56:40;16.13;;;13.87;;
15482;SDS011;7843;50.330;7.312;2022-08-18T02:59:12;15.77;;;14.18;;
15482;SDS011;7843;50.330;7.312;2022-08-18T03:01:42;16.00;;;14.30;;
15482;SDS011;7843;50.330;7.312;2022-08-18T03:04:12;15.48;;;13.88;;
15482;SDS011;7843;50.330;7.312;2022-08-18T03:06:41;15.88;;;14.27;;
15482;SDS011;7843;50.330;7.312;2022-08-18T03:09:10;15.63;;;14.02;;
15482;SDS011;7843;50.330;7.312;2022-08-18T03:11:38;15.15;;;13.65;;
15482;SDS011;7843;50.330;7.312;2022-08-18T03:14:05;16.60;;;15.00;;
15482;SDS011;7843;50.330;7.312;2022-08-18T03:16:32;16.55;;;14.73;;
15482;SDS011;7843;50.330;7.312;2022-08-18T03:19:00;15.52;;;13.93;;
15482;SDS011;7843;50.330;7.312;2022-08-18T03:21:28;14.57;;;13.15;;
15482;SDS011;7843;50.330;7.312;2022-08-18T03:23:57;15.35;;;13.75;;
15482;SDS011;7843;50.330;7.312;2022-08-18T03:26:24;14.10;;;12.75;;
15482;SDS011;7843;50.330;7.312;2022-08-18T03:28:51;15.23;;;13.73;;
15482;SDS011;7843;50.330;7.312;2022-08-18T03:31:20;14.10;;;12.73;;
15482;SDS011;7843;50.330;7.312;2022-08-18T03:33:48;14.00;;;12.55;;
15482;SDS011;7843;50.330;7.312;2022-08-18T03:36:18;14.57;;;12.50;;
15482;SDS011;7843;50.330;7.312;2022-08-18T03:38:50;14.50;;;13.05;;
15482;SDS011;7843;50.330;7.312;2022-08-18T03:41:19;15.38;;;13.48;;
15482;SDS011;7843;50.330;7.312;2022-08-18T03:43:49;16.20;;;14.55;;
15482;SDS011;7843;50.330;7.312;2022-08-18T03:46:17;17.75;;;15.55;;
15482;SDS011;7843;50.330;7.312;2022-08-18T03:48:47;17.75;;;15.55;;
15482;SDS011;7843;50.330;7.312;2022-08-18T03:51:17;16.70;;;15.05;;
15482;SDS011;7843;50.330;7.312;2022-08-18T03:53:47;16.13;;;14.52;;
15482;SDS011;7843;50.330;7.312;2022-08-18T03:56:16;15.48;;;14.00;;
15482;SDS011;7843;50.330;7.312;2022-08-18T03:58:48;15.35;;;13.75;;
15482;SDS011;7843;50.330;7.312;2022-08-18T04:01:21;15.57;;;14.07;;
15482;SDS011;7843;50.330;7.312;2022-08-18T04:03:51;15.52;;;13.85;;
15482;SDS011;7843;50.330;7.312;2022-08-18T04:06:23;17.23;;;14.60;;
15482;SDS011;7843;50.330;7.312;2022-08-18T04:08:52;14.95;;;13.45;;
15482;SDS011;7843;50.330;7.312;2022-08-18T04:11:20;15.73;;;14.23;;
15482;SDS011;7843;50.330;7.312;2022-08-18T04:13:48;15.60;;;13.85;;
15482;SDS011;7843;50.330;7.312;2022-08-18T04:16:15;15.23;;;13.70;;
15482;SDS011;7843;50.330;7.312;2022-08-18T04:18:42;15.93;;;14.32;;
15482;SDS011;7843;50.330;7.312;2022-08-18T04:21:10;16.60;;;14.90;;
15482;SDS011;7843;50.330;7.312;2022-08-18T04:23:39;16.80;;;15.05;;
15482;SDS011;7843;50.330;7.312;2022-08-18T04:26:06;16.52;;;14.77;;
15482;SDS011;7843;50.330;7.312;2022-08-18T04:28:34;15.45;;;13.75;;
15482;SDS011;7843;50.330;7.312;2022-08-18T04:31:05;16.13;;;14.52;;
15482;SDS011;7843;50.330;7.312;2022-08-18T04:33:33;16.17;;;14.50;;
15482;SDS011;7843;50.330;7.312;2022-08-18T04:36:06;14.02;;;12.63;;
15482;SDS011;7843;50.330;7.312;2022-08-18T04:38:37;13.65;;;12.35;;
15482;SDS011;7843;50.330;7.312;2022-08-18T04:41:04;13.77;;;12.40;;
15482;SDS011;7843;50.330;7.312;2022-08-18T04:43:31;13.77;;;12.37;;
15482;SDS011;7843;50.330;7.312;2022-08-18T04:45:58;13.17;;;11.80;;
15482;SDS011;7843;50.330;7.312;2022-08-18T04:48:30;13.35;;;12.05;;
15482;SDS011;7843;50.330;7.312;2022-08-18T04:51:05;13.45;;;12.05;;
15482;SDS011;7843;50.330;7.312;2022-08-18T04:53:34;13.10;;;11.80;;
15482;SDS011;7843;50.330;7.312;2022-08-18T04:58:46;14.85;;;13.45;;
15482;SDS011;7843;50.330;7.312;2022-08-18T05:01:21;13.77;;;12.40;;
15482;SDS011;7843;50.330;7.312;2022-08-18T05:03:50;14.95;;;13.52;;
15482;SDS011;7843;50.330;7.312;2022-08-18T05:06:18;15.48;;;13.90;;
15482;SDS011;7843;50.330;7.312;2022-08-18T05:08:51;15.70;;;14.10;;
15482;SDS011;7843;50.330;7.312;2022-08-18T05:11:20;15.40;;;13.93;;
15482;SDS011;7843;50.330;7.312;2022-08-18T05:13:48;15.05;;;13.48;;
15482;SDS011;7843;50.330;7.312;2022-08-18T05:16:17;13.68;;;12.35;;
15482;SDS011;7843;50.330;7.312;2022-08-18T05:18:45;13.60;;;12.30;;
15482;SDS011;7843;50.330;7.312;2022-08-18T05:21:11;13.82;;;12.50;;
15482;SDS011;7843;50.330;7.312;2022-08-18T05:23:41;13.93;;;12.52;;
15482;SDS011;7843;50.330;7.312;2022-08-18T05:26:12;17.25;;;15.45;;
15482;SDS011;7843;50.330;7.312;2022-08-18T05:28:40;17.13;;;15.33;;
15482;SDS011;7843;50.330;7.312;2022-08-18T05:31:08;17.42;;;15.63;;
15482;SDS011;7843;50.330;7.312;2022-08-18T05:33:38;18.52;;;16.63;;
15482;SDS011;7843;50.330;7.312;2022-08-18T05:36:31;17.70;;;15.73;;
15482;SDS011;7843;50.330;7.312;2022-08-18T05:39:13;18.85;;;15.57;;
15482;SDS011;7843;50.330;7.312;2022-08-18T05:41:45;15.65;;;14.00;;
15482;SDS011;7843;50.330;7.312;2022-08-18T05:44:19;15.50;;;14.00;;
15482;SDS011;7843;50.330;7.312;2022-08-18T05:46:51;15.45;;;13.85;;
15482;SDS011;7843;50.330;7.312;2022-08-18T05:49:26;17.40;;;15.40;;
15482;SDS011;7843;50.330;7.312;2022-08-18T05:51:55;16.60;;;14.90;;
15482;SDS011;7843;50.330;7.312;2022-08-18T05:54:24;15.25;;;13.65;;
15482;SDS011;7843;50.330;7.312;2022-08-18T05:57:16;16.17;;;14.48;;
15482;SDS011;7843;50.330;7.312;2022-08-18T05:59:49;16.23;;;14.63;;
15482;SDS011;7843;50.330;7.312;2022-08-18T06:04:59;16.70;;;15.00;;
15482;SDS011;7843;50.330;7.312;2022-08-18T06:07:36;16.30;;;14.40;;
15482;SDS011;7843;50.330;7.312;2022-08-18T06:10:10;17.27;;;15.30;;
15482;SDS011;7843;50.330;7.312;2022-08-18T06:12:39;17.15;;;15.35;;
15482;SDS011;7843;50.330;7.312;2022-08-18T06:17:50;16.02;;;14.43;;
15482;SDS011;7843;50.330;7.312;2022-08-18T06:23:18;15.43;;;13.90;;
15482;SDS011;7843;50.330;7.312;2022-08-18T06:37:06;15.20;;;13.70;;
15482;SDS011;7843;50.330;7.312;2022-08-18T06:42:10;17.77;;;14.35;;
15482;SDS011;7843;50.330;7.312;2022-08-18T06:44:38;15.68;;;14.18;;
15482;SDS011;7843;50.330;7.312;2022-08-18T06:53:07;18.02;;;16.23;;
15482;SDS011;7843;50.330;7.312;2022-08-18T06:55:35;17.85;;;15.95;;
15482;SDS011;7843;50.330;7.312;2022-08-18T07:03:17;19.33;;;16.83;;
15482;SDS011;7843;50.330;7.312;2022-08-18T07:06:06;21.80;;;19.15;;
15482;SDS011;7843;50.330;7.312;2022-08-18T07:08:43;24.98;;;18.77;;
15482;SDS011;7843;50.330;7.312;2022-08-18T07:11:13;21.90;;;18.73;;
15482;SDS011;7843;50.330;7.312;2022-08-18T07:13:47;22.20;;;18.70;;
15482;SDS011;7843;50.330;7.312;2022-08-18T07:16:30;19.13;;;16.98;;
15482;SDS011;7843;50.330;7.312;2022-08-18T07:19:13;18.77;;;16.38;;
15482;SDS011;7843;50.330;7.312;2022-08-18T07:21:46;19.30;;;16.23;;
15482;SDS011;7843;50.330;7.312;2022-08-18T07:24:36;20.60;;;18.40;;
15482;SDS011;7843;50.330;7.312;2022-08-18T07:29:37;26.02;;;21.45;;
15482;SDS011;7843;50.330;7.312;2022-08-18T07:32:08;27.08;;;22.02;;
15482;SDS011;7843;50.330;7.312;2022-08-18T07:34:51;27.85;;;23.33;;
15482;SDS011;7843;50.330;7.312;2022-08-18T07:37:41;28.67;;;22.95;;
15482;SDS011;7843;50.330;7.312;2022-08-18T07:42:55;28.05;;;24.92;;
15482;SDS011;7843;50.330;7.312;2022-08-18T07:45:35;31.03;;;24.00;;
15482;SDS011;7843;50.330;7.312;2022-08-18T07:48:18;26.92;;;23.30;;
15482;SDS011;7843;50.330;7.312;2022-08-18T07:57:27;25.83;;;22.98;;
15482;SDS011;7843;50.330;7.312;2022-08-18T08:00:09;26.48;;;22.92;;
15482;SDS011;7843;50.330;7.312;2022-08-18T08:16:27;27.10;;;23.35;;
15482;SDS011;7843;50.330;7.312;2022-08-18T08:19:24;26.70;;;23.17;;
15482;SDS011;7843;50.330;7.312;2022-08-18T08:25:12;26.88;;;23.83;;
15482;SDS011;7843;50.330;7.312;2022-08-18T08:28:19;25.98;;;21.90;;
15482;SDS011;7843;50.330;7.312;2022-08-18T08:34:02;30.83;;;24.45;;
15482;SDS011;7843;50.330;7.312;2022-08-18T08:36:41;28.42;;;23.63;;
15482;SDS011;7843;50.330;7.312;2022-08-18T08:39:13;30.92;;;26.30;;
15482;SDS011;7843;50.330;7.312;2022-08-18T08:44:31;38.22;;;31.90;;
15482;SDS011;7843;50.330;7.312;2022-08-18T08:49:53;41.95;;;33.03;;
15482;SDS011;7843;50.330;7.312;2022-08-18T08:52:30;39.33;;;30.88;;
15482;SDS011;7843;50.330;7.312;2022-08-18T08:55:08;38.00;;;30.17;;
15482;SDS011;7843;50.330;7.312;2022-08-18T08:57:41;35.60;;;30.50;;
15482;SDS011;7843;50.330;7.312;2022-08-18T09:00:17;38.17;;;30.73;;
15482;SDS011;7843;50.330;7.312;2022-08-18T09:02:51;34.40;;;29.13;;
15482;SDS011;7843;50.330;7.312;2022-08-18T09:05:34;35.15;;;29.58;;
15482;SDS011;7843;50.330;7.312;2022-08-18T09:08:19;33.92;;;28.92;;
15482;SDS011;7843;50.330;7.312;2022-08-18T09:11:14;37.55;;;29.48;;
15482;SDS011;7843;50.330;7.312;2022-08-18T09:16:44;32.67;;;27.95;;
15482;SDS011;7843;50.330;7.312;2022-08-18T09:24:40;21.08;;;18.73;;
15482;SDS011;7843;50.330;7.312;2022-08-18T09:42:33;24.30;;;20.58;;
15482;SDS011;7843;50.330;7.312;2022-08-18T09:45:07;22.65;;;19.20;;
15482;SDS011;7843;50.330;7.312;2022-08-18T09:48:01;21.95;;;19.25;;
15482;SDS011;7843;50.330;7.312;2022-08-18T09:50:32;23.00;;;19.05;;
15482;SDS011;7843;50.330;7.312;2022-08-18T09:53:30;21.80;;;19.02;;
15482;SDS011;7843;50.330;7.312;2022-08-18T09:56:02;25.13;;;20.50;;
15482;SDS011;7843;50.330;7.312;2022-08-18T09:58:46;25.77;;;20.25;;
15482;SDS011;7843;50.330;7.312;2022-08-18T10:01:18;27.17;;;21.00;;
15482;SDS011;7843;50.330;7.312;2022-08-18T10:06:40;29.15;;;22.13;;
15482;SDS011;7843;50.330;7.312;2022-08-18T10:09:34;28.52;;;22.85;;
15482;SDS011;7843;50.330;7.312;2022-08-18T10:22:58;28.55;;;22.98;;
15482;SDS011;7843;50.330;7.312;2022-08-18T10:25:31;27.95;;;21.70;;
15482;SDS011;7843;50.330;7.312;2022-08-18T10:28:04;25.05;;;20.85;;
15482;SDS011;7843;50.330;7.312;2022-08-18T10:33:03;27.08;;;21.95;;
15482;SDS011;7843;50.330;7.312;2022-08-18T10:35:56;30.65;;;23.13;;
15482;SDS011;7843;50.330;7.312;2022-08-18T10:38:27;29.58;;;23.42;;
15482;SDS011;7843;50.330;7.312;2022-08-18T10:41:05;29.83;;;24.13;;
15482;SDS011;7843;50.330;7.312;2022-08-18T10:43:46;28.52;;;23.10;;
15482;SDS011;7843;50.330;7.312;2022-08-18T10:46:23;29.45;;;23.08;;
15482;SDS011;7843;50.330;7.312;2022-08-18T10:49:03;30.50;;;23.88;;
15482;SDS011;7843;50.330;7.312;2022-08-18T10:52:02;29.65;;;23.35;;
15482;SDS011;7843;50.330;7.312;2022-08-18T10:57:08;30.80;;;23.90;;
15482;SDS011;7843;50.330;7.312;2022-08-18T11:00:07;31.45;;;23.88;;
15482;SDS011;7843;50.330;7.312;2022-08-18T11:02:48;33.83;;;25.23;;
15482;SDS011;7843;50.330;7.312;2022-08-18T11:05:46;33.67;;;26.25;;
15482;SDS011;7843;50.330;7.312;2022-08-18T11:08:14;34.17;;;25.77;;
15482;SDS011;7843;50.330;7.312;2022-08-18T11:10:45;32.13;;;25.50;;
15482;SDS011;7843;50.330;7.312;2022-08-18T11:13:28;32.65;;;25.42;;
15482;SDS011;7843;50.330;7.312;2022-08-18T11:18:43;34.45;;;26.00;;
15482;SDS011;7843;50.330;7.312;2022-08-18T11:21:47;32.72;;;24.95;;
15482;SDS011;7843;50.330;7.312;2022-08-18T11:26:58;34.60;;;26.50;;
15482;SDS011;7843;50.330;7.312;2022-08-18T11:29:42;34.72;;;27.65;;
15482;SDS011;7843;50.330;7.312;2022-08-18T11:32:15;35.42;;;26.67;;
15482;SDS011;7843;50.330;7.312;2022-08-18T11:40:05;34.85;;;26.23;;
15482;SDS011;7843;50.330;7.312;2022-08-18T11:42:46;34.13;;;25.63;;
15482;SDS011;7843;50.330;7.312;2022-08-18T11:45:46;37.08;;;27.00;;
15482;SDS011;7843;50.330;7.312;2022-08-18T11:53:23;35.63;;;27.10;;
15482;SDS011;7843;50.330;7.312;2022-08-18T11:56:03;36.70;;;27.45;;
15482;SDS011;7843;50.330;7.312;2022-08-18T12:07:04;39.67;;;29.10;;
15482;SDS011;7843;50.330;7.312;2022-08-18T12:09:41;40.87;;;29.87;;
15482;SDS011;7843;50.330;7.312;2022-08-18T12:12:30;39.60;;;28.77;;
15482;SDS011;7843;50.330;7.312;2022-08-18T12:17:43;38.05;;;28.95;;
15482;SDS011;7843;50.330;7.312;2022-08-18T12:20:12;40.53;;;29.40;;
15482;SDS011;7843;50.330;7.312;2022-08-18T12:22:40;41.45;;;30.10;;
15482;SDS011;7843;50.330;7.312;2022-08-18T12:25:10;37.17;;;28.15;;
15482;SDS011;7843;50.330;7.312;2022-08-18T12:27:39;36.45;;;27.48;;
15482;SDS011;7843;50.330;7.312;2022-08-18T12:30:08;35.77;;;27.10;;
15482;SDS011;7843;50.330;7.312;2022-08-18T12:32:35;34.97;;;27.15;;
15482;SDS011;7843;50.330;7.312;2022-08-18T12:35:04;32.42;;;24.95;;
15482;SDS011;7843;50.330;7.312;2022-08-18T12:37:33;34.50;;;25.95;;
15482;SDS011;7843;50.330;7.312;2022-08-18T12:40:19;36.20;;;27.07;;
15482;SDS011;7843;50.330;7.312;2022-08-18T12:42:48;32.92;;;24.52;;
15482;SDS011;7843;50.330;7.312;2022-08-18T12:45:15;30.58;;;23.20;;
15482;SDS011;7843;50.330;7.312;2022-08-18T12:47:42;30.90;;;23.98;;
15482;SDS011;7843;50.330;7.312;2022-08-18T12:50:09;33.20;;;24.85;;
15482;SDS011;7843;50.330;7.312;2022-08-18T12:52:35;28.67;;;22.98;;
15482;SDS011;7843;50.330;7.312;2022-08-18T12:55:02;33.15;;;24.52;;
15482;SDS011;7843;50.330;7.312;2022-08-18T12:57:29;29.37;;;23.67;;
15482;SDS011;7843;50.330;7.312;2022-08-18T12:59:56;28.33;;;23.38;;
15482;SDS011;7843;50.330;7.312;2022-08-18T13:02:23;30.43;;;22.57;;
15482;SDS011;7843;50.330;7.312;2022-08-18T13:04:49;26.58;;;20.98;;
15482;SDS011;7843;50.330;7.312;2022-08-18T13:07:21;28.20;;;23.03;;
15482;SDS011;7843;50.330;7.312;2022-08-18T13:09:48;26.80;;;21.33;;
15482;SDS011;7843;50.330;7.312;2022-08-18T13:12:15;27.93;;;21.07;;
15482;SDS011;7843;50.330;7.312;2022-08-18T13:14:43;26.73;;;21.77;;
15482;SDS011;7843;50.330;7.312;2022-08-18T13:17:11;25.42;;;21.60;;
15482;SDS011;7843;50.330;7.312;2022-08-18T13:19:41;24.15;;;20.90;;
15482;SDS011;7843;50.330;7.312;2022-08-18T13:22:08;24.02;;;20.50;;
15482;SDS011;7843;50.330;7.312;2022-08-18T13:24:35;27.07;;;20.87;;
15482;SDS011;7843;50.330;7.312;2022-08-18T13:27:02;25.98;;;21.65;;
15482;SDS011;7843;50.330;7.312;2022-08-18T13:29:29;23.98;;;19.98;;
15482;SDS011;7843;50.330;7.312;2022-08-18T13:31:56;25.83;;;20.55;;
15482;SDS011;7843;50.330;7.312;2022-08-18T13:34:25;23.15;;;20.52;;
15482;SDS011;7843;50.330;7.312;2022-08-18T13:36:56;22.98;;;20.42;;
15482;SDS011;7843;50.330;7.312;2022-08-18T13:39:23;22.77;;;20.30;;
15482;SDS011;7843;50.330;7.312;2022-08-18T13:41:51;22.88;;;20.02;;
15482;SDS011;7843;50.330;7.312;2022-08-18T13:44:19;24.50;;;21.02;;
15482;SDS011;7843;50.330;7.312;2022-08-18T13:46:48;25.60;;;21.13;;
15482;SDS011;7843;50.330;7.312;2022-08-18T13:49:18;22.20;;;20.00;;
15482;SDS011;7843;50.330;7.312;2022-08-18T13:51:47;23.30;;;20.80;;
15482;SDS011;7843;50.330;7.312;2022-08-18T13:54:17;23.77;;;21.27;;
15482;SDS011;7843;50.330;7.312;2022-08-18T13:56:55;22.15;;;19.98;;
15482;SDS011;7843;50.330;7.312;2022-08-18T13:59:22;19.42;;;17.45;;
15482;SDS011;7843;50.330;7.312;2022-08-18T14:01:49;21.43;;;19.13;;
15482;SDS011;7843;50.330;7.312;2022-08-18T14:04:18;22.58;;;20.20;;
15482;SDS011;7843;50.330;7.312;2022-08-18T14:06:46;22.88;;;20.52;;
15482;SDS011;7843;50.330;7.312;2022-08-18T14:09:12;23.58;;;21.27;;
15482;SDS011;7843;50.330;7.312;2022-08-18T14:11:39;23.00;;;20.80;;
15482;SDS011;7843;50.330;7.312;2022-08-18T14:14:06;22.90;;;20.70;;
15482;SDS011;7843;50.330;7.312;2022-08-18T14:16:33;22.48;;;20.17;;
15482;SDS011;7843;50.330;7.312;2022-08-18T14:19:00;21.77;;;19.67;;
15482;SDS011;7843;50.330;7.312;2022-08-18T14:21:47;21.55;;;19.48;;
15482;SDS011;7843;50.330;7.312;2022-08-18T14:24:34;21.77;;;19.67;;
15482;SDS011;7843;50.330;7.312;2022-08-18T14:27:25;22.47;;;20.13;;
15482;SDS011;7843;50.330;7.312;2022-08-18T14:30:06;20.35;;;18.42;;
15482;SDS011;7843;50.330;7.312;2022-08-18T14:32:35;21.13;;;18.98;;
15482;SDS011;7843;50.330;7.312;2022-08-18T14:35:03;20.58;;;18.58;;
15482;SDS011;7843;50.330;7.312;2022-08-18T14:37:32;21.70;;;19.60;;
15482;SDS011;7843;50.330;7.312;2022-08-18T14:39:59;21.52;;;19.15;;
15482;SDS011;7843;50.330;7.312;2022-08-18T14:42:26;21.00;;;18.88;;
15482;SDS011;7843;50.330;7.312;2022-08-18T14:44:52;20.35;;;18.30;;
15482;SDS011;7843;50.330;7.312;2022-08-18T14:47:20;19.77;;;17.67;;
15482;SDS011;7843;50.330;7.312;2022-08-18T14:49:47;19.13;;;17.23;;
15482;SDS011;7843;50.330;7.312;2022-08-18T14:52:14;19.30;;;17.42;;
15482;SDS011;7843;50.330;7.312;2022-08-18T14:54:41;20.15;;;18.15;;
15482;SDS011;7843;50.330;7.312;2022-08-18T14:57:08;19.60;;;17.48;;
15482;SDS011;7843;50.330;7.312;2022-08-18T14:59:36;19.95;;;17.95;;
15482;SDS011;7843;50.330;7.312;2022-08-18T15:02:04;22.65;;;20.27;;
15482;SDS011;7843;50.330;7.312;2022-08-18T15:04:32;22.50;;;20.35;;
15482;SDS011;7843;50.330;7.312;2022-08-18T15:06:59;21.77;;;19.58;;
15482;SDS011;7843;50.330;7.312;2022-08-18T15:09:26;23.38;;;21.02;;
15482;SDS011;7843;50.330;7.312;2022-08-18T15:11:56;23.85;;;21.35;;
15482;SDS011;7843;50.330;7.312;2022-08-18T15:14:25;22.45;;;20.10;;
15482;SDS011;7843;50.330;7.312;2022-08-18T15:16:53;21.25;;;18.90;;
15482;SDS011;7843;50.330;7.312;2022-08-18T15:19:21;21.52;;;19.27;;
15482;SDS011;7843;50.330;7.312;2022-08-18T15:21:48;22.00;;;19.88;;
15482;SDS011;7843;50.330;7.312;2022-08-18T15:24:33;22.95;;;20.65;;
15482;SDS011;7843;50.330;7.312;2022-08-18T15:27:28;22.35;;;20.15;;
15482;SDS011;7843;50.330;7.312;2022-08-18T15:30:03;22.77;;;20.42;;
15482;SDS011;7843;50.330;7.312;2022-08-18T15:32:32;21.83;;;19.50;;
15482;SDS011;7843;50.330;7.312;2022-08-18T15:34:59;22.48;;;20.08;;
15482;SDS011;7843;50.330;7.312;2022-08-18T15:37:26;23.63;;;20.35;;
15482;SDS011;7843;50.330;7.312;2022-08-18T15:40:00;22.58;;;20.17;;
15482;SDS011;7843;50.330;7.312;2022-08-18T15:42:37;21.40;;;19.20;;
15482;SDS011;7843;50.330;7.312;2022-08-18T15:45:12;22.33;;;19.92;;
15482;SDS011;7843;50.330;7.312;2022-08-18T15:47:41;22.38;;;19.48;;
15482;SDS011;7843;50.330;7.312;2022-08-18T15:50:09;23.40;;;21.00;;
15482;SDS011;7843;50.330;7.312;2022-08-18T15:52:44;21.95;;;19.65;;
15482;SDS011;7843;50.330;7.312;2022-08-18T15:55:15;23.10;;;20.55;;
15482;SDS011;7843;50.330;7.312;2022-08-18T15:57:43;23.73;;;21.23;;
15482;SDS011;7843;50.330;7.312;2022-08-18T16:00:10;23.98;;;21.40;;
15482;SDS011;7843;50.330;7.312;2022-08-18T16:02:39;24.50;;;21.88;;
15482;SDS011;7843;50.330;7.312;2022-08-18T16:05:07;24.55;;;21.95;;
15482;SDS011;7843;50.330;7.312;2022-08-18T16:07:34;24.97;;;22.27;;
15482;SDS011;7843;50.330;7.312;2022-08-18T16:10:03;24.53;;;22.03;;
15482;SDS011;7843;50.330;7.312;2022-08-18T16:12:30;24.67;;;22.05;;
15482;SDS011;7843;50.330;7.312;2022-08-18T16:14:57;25.97;;;22.23;;
15482;SDS011;7843;50.330;7.312;2022-08-18T16:17:24;23.50;;;21.08;;
15482;SDS011;7843;50.330;7.312;2022-08-18T16:19:56;24.15;;;21.65;;
15482;SDS011;7843;50.330;7.312;2022-08-18T16:22:23;25.50;;;22.10;;
15482;SDS011;7843;50.330;7.312;2022-08-18T16:24:50;24.52;;;21.92;;
15482;SDS011;7843;50.330;7.312;2022-08-18T16:27:16;23.47;;;21.10;;
15482;SDS011;7843;50.330;7.312;2022-08-18T16:29:43;21.42;;;19.13;;
15482;SDS011;7843;50.330;7.312;2022-08-18T16:32:10;21.90;;;19.60;;
15482;SDS011;7843;50.330;7.312;2022-08-18T16:34:36;23.35;;;21.00;;
15482;SDS011;7843;50.330;7.312;2022-08-18T16:37:04;22.10;;;19.80;;
15482;SDS011;7843;50.330;7.312;2022-08-18T16:39:34;22.42;;;20.02;;
15482;SDS011;7843;50.330;7.312;2022-08-18T16:42:01;22.52;;;20.23;;
15482;SDS011;7843;50.330;7.312;2022-08-18T16:44:29;21.23;;;19.20;;
15482;SDS011;7843;50.330;7.312;2022-08-18T16:46:58;22.70;;;20.40;;
15482;SDS011;7843;50.330;7.312;2022-08-18T16:49:27;23.02;;;19.58;;
15482;SDS011;7843;50.330;7.312;2022-08-18T16:51:54;21.55;;;19.25;;
15482;SDS011;7843;50.330;7.312;2022-08-18T16:54:21;21.58;;;19.48;;
15482;SDS011;7843;50.330;7.312;2022-08-18T16:56:48;21.20;;;18.95;;
15482;SDS011;7843;50.330;7.312;2022-08-18T16:59:14;22.38;;;20.08;;
15482;SDS011;7843;50.330;7.312;2022-08-18T17:02:00;21.58;;;19.48;;
15482;SDS011;7843;50.330;7.312;2022-08-18T17:04:45;20.55;;;18.45;;
15482;SDS011;7843;50.330;7.312;2022-08-18T17:07:12;20.85;;;18.83;;
15482;SDS011;7843;50.330;7.312;2022-08-18T17:09:39;19.75;;;17.80;;
15482;SDS011;7843;50.330;7.312;2022-08-18T17:12:05;20.00;;;18.02;;
15482;SDS011;7843;50.330;7.312;2022-08-18T17:14:32;19.60;;;17.60;;
15482;SDS011;7843;50.330;7.312;2022-08-18T17:16:59;19.98;;;17.92;;
15482;SDS011;7843;50.330;7.312;2022-08-18T17:19:28;19.65;;;17.75;;
15482;SDS011;7843;50.330;7.312;2022-08-18T17:21:59;18.90;;;17.02;;
15482;SDS011;7843;50.330;7.312;2022-08-18T17:24:26;20.25;;;18.20;;
15482;SDS011;7843;50.330;7.312;2022-08-18T17:27:15;19.45;;;17.52;;
15482;SDS011;7843;50.330;7.312;2022-08-18T17:32:36;19.40;;;17.43;;